sensor_id;sensor_type;location;lat;lon;timestamp;temperature;humidity
14188;DHT22;7175;51.978;5.330;2022-08-01T00:01:11;19.70;99.90
14188;DHT22;7175;51.978;5.330;2022-08-01T00:03:57;19.70;99.90
14188;DHT22;7175;51.978;5.330;2022-08-01T00:06:31;19.70;99.90
14188;DHT22;7175;51.978;5.330;2022-08-01T00:09:02;19.60;99.90
14188;DHT22;7175;51.978;5.330;2022-08-01T00:11:30;19.60;99.90
14188;DHT22;7175;51.978;5.330;2022-08-01T00:14:04;19.60;99.90
14188;DHT22;7175;51.978;5.330;2022-08-01T00:16:34;19.60;99.90
14188;DHT22;7175;51.978;5.330;2022-08-01T00:19:04;19.60;99.90
14188;DHT22;7175;51.978;5.330;2022-08-01T00:21:36;19.60;99.90
14188;DHT22;7175;51.978;5.330;2022-08-01T00:24:19;19.60;99.90
14188;DHT22;7175;51.978;5.330;2022-08-01T00:26:49;19.50;99.90
14188;DHT22;7175;51.978;5.330;2022-08-01T00:29:17;19.50;99.90
14188;DHT22;7175;51.978;5.330;2022-08-01T00:32:06;19.50;99.90
14188;DHT22;7175;51.978;5.330;2022-08-01T00:34:41;19.60;99.90
14188;DHT22;7175;51.978;5.330;2022-08-01T00:37:19;19.50;99.90
14188;DHT22;7175;51.978;5.330;2022-08-01T00:39:49;19.50;99.90
14188;DHT22;7175;51.978;5.330;2022-08-01T00:42:17;19.50;99.90
14188;DHT22;7175;51.978;5.330;2022-08-01T00:44:47;19.50;99.90
14188;DHT22;7175;51.978;5.330;2022-08-01T00:47:15;19.50;99.90
14188;DHT22;7175;51.978;5.330;2022-08-01T00:49:44;19.50;99.90
14188;DHT22;7175;51.978;5.330;2022-08-01T00:52:14;19.50;99.90
14188;DHT22;7175;51.978;5.330;2022-08-01T00:54:43;19.50;99.90
14188;DHT22;7175;51.978;5.330;2022-08-01T00:57:19;19.40;99.90
14188;DHT22;7175;51.978;5.330;2022-08-01T01:00:10;19.40;99.90
14188;DHT22;7175;51.978;5.330;2022-08-01T01:02:38;19.40;99.90
14188;DHT22;7175;51.978;5.330;2022-08-01T01:05:07;19.40;99.90
14188;DHT22;7175;51.978;5.330;2022-08-01T01:07:43;19.40;99.90
14188;DHT22;7175;51.978;5.330;2022-08-01T01:10:19;19.40;99.90
14188;DHT22;7175;51.978;5.330;2022-08-01T01:12:57;19.30;99.90
14188;DHT22;7175;51.978;5.330;2022-08-01T01:15:33;19.30;99.90
14188;DHT22;7175;51.978;5.330;2022-08-01T01:18:14;19.30;99.90
14188;DHT22;7175;51.978;5.330;2022-08-01T01:20:46;19.30;99.90
14188;DHT22;7175;51.978;5.330;2022-08-01T01:23:34;19.30;99.90
14188;DHT22;7175;51.978;5.330;2022-08-01T01:26:30;19.30;99.90
14188;DHT22;7175;51.978;5.330;2022-08-01T01:29:11;19.20;99.90
14188;DHT22;7175;51.978;5.330;2022-08-01T01:31:44;19.20;99.90
14188;DHT22;7175;51.978;5.330;2022-08-01T01:34:16;19.20;99.90
14188;DHT22;7175;51.978;5.330;2022-08-01T01:36:46;19.30;99.90
14188;DHT22;7175;51.978;5.330;2022-08-01T01:39:20;19.30;99.90
14188;DHT22;7175;51.978;5.330;2022-08-01T01:41:49;19.30;99.90
14188;DHT22;7175;51.978;5.330;2022-08-01T01:44:21;19.30;99.90
14188;DHT22;7175;51.978;5.330;2022-08-01T01:46:51;19.20;99.90
14188;DHT22;7175;51.978;5.330;2022-08-01T01:49:27;19.20;99.90
14188;DHT22;7175;51.978;5.330;2022-08-01T01:52:03;19.20;99.90
14188;DHT22;7175;51.978;5.330;2022-08-01T01:54:37;19.20;99.90
14188;DHT22;7175;51.978;5.330;2022-08-01T01:57:08;19.20;99.90
14188;DHT22;7175;51.978;5.330;2022-08-01T01:59:41;19.20;99.90
14188;DHT22;7175;51.978;5.330;2022-08-01T02:02:11;19.20;99.90
14188;DHT22;7175;51.978;5.330;2022-08-01T02:04:43;19.20;99.90
14188;DHT22;7175;51.978;5.330;2022-08-01T02:07:19;19.20;99.90
14188;DHT22;7175;51.978;5.330;2022-08-01T02:09:49;19.10;99.90
14188;DHT22;7175;51.978;5.330;2022-08-01T02:12:19;19.10;99.90
14188;DHT22;7175;51.978;5.330;2022-08-01T02:14:50;19.00;99.90
14188;DHT22;7175;51.978;5.330;2022-08-01T02:17:26;19.00;99.90
14188;DHT22;7175;51.978;5.330;2022-08-01T02:20:01;18.90;99.90
14188;DHT22;7175;51.978;5.330;2022-08-01T02:22:34;18.90;99.90
14188;DHT22;7175;51.978;5.330;2022-08-01T02:25:11;18.90;99.90
14188;DHT22;7175;51.978;5.330;2022-08-01T02:27:45;19.00;99.90
14188;DHT22;7175;51.978;5.330;2022-08-01T02:30:19;19.00;99.90
14188;DHT22;7175;51.978;5.330;2022-08-01T02:32:51;19.00;99.90
14188;DHT22;7175;51.978;5.330;2022-08-01T02:35:27;19.00;99.90
14188;DHT22;7175;51.978;5.330;2022-08-01T02:37:59;19.00;99.90
14188;DHT22;7175;51.978;5.330;2022-08-01T02:40:31;18.90;99.90
14188;DHT22;7175;51.978;5.330;2022-08-01T02:43:02;19.00;99.90
14188;DHT22;7175;51.978;5.330;2022-08-01T02:45:34;19.00;99.90
14188;DHT22;7175;51.978;5.330;2022-08-01T02:48:07;19.00;99.90
14188;DHT22;7175;51.978;5.330;2022-08-01T02:50:38;19.00;99.90
14188;DHT22;7175;51.978;5.330;2022-08-01T02:53:09;19.00;99.90
14188;DHT22;7175;51.978;5.330;2022-08-01T02:55:41;18.90;99.90
14188;DHT22;7175;51.978;5.330;2022-08-01T02:58:14;19.00;99.90
14188;DHT22;7175;51.978;5.330;2022-08-01T03:00:47;18.90;99.90
14188;DHT22;7175;51.978;5.330;2022-08-01T03:03:18;18.90;99.90
14188;DHT22;7175;51.978;5.330;2022-08-01T03:05:47;18.90;99.90
14188;DHT22;7175;51.978;5.330;2022-08-01T03:08:16;18.90;99.90
14188;DHT22;7175;51.978;5.330;2022-08-01T03:10:47;18.90;99.90
14188;DHT22;7175;51.978;5.330;2022-08-01T03:13:17;18.80;99.90
14188;DHT22;7175;51.978;5.330;2022-08-01T03:15:48;18.80;99.90
14188;DHT22;7175;51.978;5.330;2022-08-01T03:18:18;18.80;99.90
14188;DHT22;7175;51.978;5.330;2022-08-01T03:20:48;18.80;99.90
14188;DHT22;7175;51.978;5.330;2022-08-01T03:23:21;18.80;99.90
14188;DHT22;7175;51.978;5.330;2022-08-01T03:26:05;18.70;99.90
14188;DHT22;7175;51.978;5.330;2022-08-01T03:28:35;18.60;99.90
14188;DHT22;7175;51.978;5.330;2022-08-01T03:31:14;18.60;99.90
14188;DHT22;7175;51.978;5.330;2022-08-01T03:33:44;18.60;99.90
14188;DHT22;7175;51.978;5.330;2022-08-01T03:36:21;18.60;99.90
14188;DHT22;7175;51.978;5.330;2022-08-01T03:38:54;18.50;99.90
14188;DHT22;7175;51.978;5.330;2022-08-01T03:41:37;18.50;99.90
14188;DHT22;7175;51.978;5.330;2022-08-01T03:44:12;18.50;99.90
14188;DHT22;7175;51.978;5.330;2022-08-01T03:46:46;18.50;99.90
14188;DHT22;7175;51.978;5.330;2022-08-01T03:49:20;18.60;99.90
14188;DHT22;7175;51.978;5.330;2022-08-01T03:51:52;18.60;99.90
14188;DHT22;7175;51.978;5.330;2022-08-01T03:54:25;18.60;99.90
14188;DHT22;7175;51.978;5.330;2022-08-01T03:56:54;18.70;99.90
14188;DHT22;7175;51.978;5.330;2022-08-01T03:59:28;18.60;99.90
14188;DHT22;7175;51.978;5.330;2022-08-01T04:02:01;18.70;99.90
14188;DHT22;7175;51.978;5.330;2022-08-01T04:04:31;18.70;99.90
14188;DHT22;7175;51.978;5.330;2022-08-01T04:07:01;18.70;99.90
14188;DHT22;7175;51.978;5.330;2022-08-01T04:09:42;18.70;99.90
14188;DHT22;7175;51.978;5.330;2022-08-01T04:12:11;18.70;99.90
14188;DHT22;7175;51.978;5.330;2022-08-01T04:14:44;18.70;99.90
14188;DHT22;7175;51.978;5.330;2022-08-01T04:17:17;18.70;99.90
14188;DHT22;7175;51.978;5.330;2022-08-01T04:19:46;18.70;99.90
14188;DHT22;7175;51.978;5.330;2022-08-01T04:22:15;18.80;99.90
14188;DHT22;7175;51.978;5.330;2022-08-01T04:24:53;18.80;99.90
14188;DHT22;7175;51.978;5.330;2022-08-01T04:27:28;18.70;99.90
14188;DHT22;7175;51.978;5.330;2022-08-01T04:30:20;18.80;99.90
14188;DHT22;7175;51.978;5.330;2022-08-01T04:32:53;18.70;99.90
14188;DHT22;7175;51.978;5.330;2022-08-01T04:35:25;18.60;99.90
14188;DHT22;7175;51.978;5.330;2022-08-01T04:38:19;18.60;99.90
14188;DHT22;7175;51.978;5.330;2022-08-01T04:40:54;18.60;99.90
14188;DHT22;7175;51.978;5.330;2022-08-01T04:43:29;18.60;99.90
14188;DHT22;7175;51.978;5.330;2022-08-01T04:45:58;18.60;99.90
14188;DHT22;7175;51.978;5.330;2022-08-01T04:48:37;18.70;99.90
14188;DHT22;7175;51.978;5.330;2022-08-01T04:51:12;18.70;99.90
14188;DHT22;7175;51.978;5.330;2022-08-01T04:53:42;18.70;99.90
14188;DHT22;7175;51.978;5.330;2022-08-01T04:56:10;18.70;99.90
14188;DHT22;7175;51.978;5.330;2022-08-01T04:58:41;18.70;99.90
14188;DHT22;7175;51.978;5.330;2022-08-01T05:01:10;18.70;99.90
14188;DHT22;7175;51.978;5.330;2022-08-01T05:03:41;18.80;99.90
14188;DHT22;7175;51.978;5.330;2022-08-01T05:06:10;18.80;99.90
14188;DHT22;7175;51.978;5.330;2022-08-01T05:08:39;18.90;99.90
14188;DHT22;7175;51.978;5.330;2022-08-01T05:11:08;18.80;99.90
14188;DHT22;7175;51.978;5.330;2022-08-01T05:13:54;18.90;99.90
14188;DHT22;7175;51.978;5.330;2022-08-01T05:16:30;18.90;99.90
14188;DHT22;7175;51.978;5.330;2022-08-01T05:19:06;19.00;99.90
14188;DHT22;7175;51.978;5.330;2022-08-01T05:21:37;19.00;99.90
14188;DHT22;7175;51.978;5.330;2022-08-01T05:24:07;19.10;99.90
14188;DHT22;7175;51.978;5.330;2022-08-01T05:26:38;19.10;99.90
14188;DHT22;7175;51.978;5.330;2022-08-01T05:29:07;19.20;99.90
14188;DHT22;7175;51.978;5.330;2022-08-01T05:31:41;19.30;99.90
14188;DHT22;7175;51.978;5.330;2022-08-01T05:34:15;19.50;99.90
14188;DHT22;7175;51.978;5.330;2022-08-01T05:36:44;19.60;99.90
14188;DHT22;7175;51.978;5.330;2022-08-01T05:39:13;19.60;99.90
14188;DHT22;7175;51.978;5.330;2022-08-01T05:41:51;19.60;99.90
14188;DHT22;7175;51.978;5.330;2022-08-01T05:44:26;19.60;99.90
14188;DHT22;7175;51.978;5.330;2022-08-01T05:46:56;19.60;99.90
14188;DHT22;7175;51.978;5.330;2022-08-01T05:49:26;19.60;99.90
14188;DHT22;7175;51.978;5.330;2022-08-01T05:51:55;19.70;99.90
14188;DHT22;7175;51.978;5.330;2022-08-01T05:54:23;19.70;99.90
14188;DHT22;7175;51.978;5.330;2022-08-01T05:56:51;19.80;99.90
14188;DHT22;7175;51.978;5.330;2022-08-01T05:59:20;19.70;99.90
14188;DHT22;7175;51.978;5.330;2022-08-01T06:01:49;19.80;99.90
14188;DHT22;7175;51.978;5.330;2022-08-01T06:04:18;19.80;99.90
14188;DHT22;7175;51.978;5.330;2022-08-01T06:06:49;19.80;99.90
14188;DHT22;7175;51.978;5.330;2022-08-01T06:09:17;19.60;99.90
14188;DHT22;7175;51.978;5.330;2022-08-01T06:11:46;19.50;99.90
14188;DHT22;7175;51.978;5.330;2022-08-01T06:14:16;19.50;99.90
14188;DHT22;7175;51.978;5.330;2022-08-01T06:16:46;19.60;99.90
14188;DHT22;7175;51.978;5.330;2022-08-01T06:19:15;19.60;99.90
14188;DHT22;7175;51.978;5.330;2022-08-01T06:21:49;19.60;99.90
14188;DHT22;7175;51.978;5.330;2022-08-01T06:24:18;19.60;99.90
14188;DHT22;7175;51.978;5.330;2022-08-01T06:26:49;19.60;99.90
14188;DHT22;7175;51.978;5.330;2022-08-01T06:29:18;19.60;99.90
14188;DHT22;7175;51.978;5.330;2022-08-01T06:31:46;19.50;99.90
14188;DHT22;7175;51.978;5.330;2022-08-01T06:34:14;19.30;99.90
14188;DHT22;7175;51.978;5.330;2022-08-01T06:36:50;19.30;99.90
14188;DHT22;7175;51.978;5.330;2022-08-01T06:39:19;19.30;99.90
14188;DHT22;7175;51.978;5.330;2022-08-01T06:41:55;19.30;99.90
14188;DHT22;7175;51.978;5.330;2022-08-01T06:44:25;19.20;99.90
14188;DHT22;7175;51.978;5.330;2022-08-01T06:46:54;19.00;99.90
14188;DHT22;7175;51.978;5.330;2022-08-01T06:49:27;18.90;99.90
14188;DHT22;7175;51.978;5.330;2022-08-01T06:51:59;18.90;99.90
14188;DHT22;7175;51.978;5.330;2022-08-01T06:54:27;18.80;99.90
14188;DHT22;7175;51.978;5.330;2022-08-01T06:57:04;18.90;99.90
14188;DHT22;7175;51.978;5.330;2022-08-01T06:59:43;18.90;99.90
14188;DHT22;7175;51.978;5.330;2022-08-01T07:02:21;18.90;99.90
14188;DHT22;7175;51.978;5.330;2022-08-01T07:04:51;19.00;99.90
14188;DHT22;7175;51.978;5.330;2022-08-01T07:07:27;18.80;99.90
14188;DHT22;7175;51.978;5.330;2022-08-01T07:09:56;18.90;99.90
14188;DHT22;7175;51.978;5.330;2022-08-01T07:12:24;18.80;99.90
14188;DHT22;7175;51.978;5.330;2022-08-01T07:14:58;18.90;99.90
14188;DHT22;7175;51.978;5.330;2022-08-01T07:17:37;19.00;99.90
14188;DHT22;7175;51.978;5.330;2022-08-01T07:20:16;19.00;99.90
14188;DHT22;7175;51.978;5.330;2022-08-01T07:22:46;18.80;99.90
14188;DHT22;7175;51.978;5.330;2022-08-01T07:25:16;19.00;99.90
14188;DHT22;7175;51.978;5.330;2022-08-01T07:27:47;18.90;99.90
14188;DHT22;7175;51.978;5.330;2022-08-01T07:30:51;18.70;99.90
14188;DHT22;7175;51.978;5.330;2022-08-01T07:33:32;19.00;99.90
14188;DHT22;7175;51.978;5.330;2022-08-01T07:36:15;19.30;99.90
14188;DHT22;7175;51.978;5.330;2022-08-01T07:38:52;19.20;99.90
14188;DHT22;7175;51.978;5.330;2022-08-01T07:41:25;19.30;99.90
14188;DHT22;7175;51.978;5.330;2022-08-01T07:44:19;19.50;99.90
14188;DHT22;7175;51.978;5.330;2022-08-01T07:47:06;19.40;99.90
14188;DHT22;7175;51.978;5.330;2022-08-01T07:49:39;19.40;99.90
14188;DHT22;7175;51.978;5.330;2022-08-01T07:52:16;19.20;99.90
14188;DHT22;7175;51.978;5.330;2022-08-01T07:54:46;19.40;99.90
14188;DHT22;7175;51.978;5.330;2022-08-01T07:57:24;19.50;99.90
14188;DHT22;7175;51.978;5.330;2022-08-01T08:00:01;19.60;99.90
14188;DHT22;7175;51.978;5.330;2022-08-01T08:02:32;19.70;99.90
14188;DHT22;7175;51.978;5.330;2022-08-01T08:05:07;19.60;99.90
14188;DHT22;7175;51.978;5.330;2022-08-01T08:07:40;19.60;99.90
14188;DHT22;7175;51.978;5.330;2022-08-01T08:10:18;19.60;99.90
14188;DHT22;7175;51.978;5.330;2022-08-01T08:12:47;19.60;99.90
14188;DHT22;7175;51.978;5.330;2022-08-01T08:15:23;19.70;99.90
14188;DHT22;7175;51.978;5.330;2022-08-01T08:17:51;19.70;99.90
14188;DHT22;7175;51.978;5.330;2022-08-01T08:20:21;19.60;99.90
14188;DHT22;7175;51.978;5.330;2022-08-01T08:22:51;19.50;99.90
14188;DHT22;7175;51.978;5.330;2022-08-01T08:25:22;19.60;99.90
14188;DHT22;7175;51.978;5.330;2022-08-01T08:27:52;19.60;99.90
14188;DHT22;7175;51.978;5.330;2022-08-01T08:30:21;19.50;99.90
14188;DHT22;7175;51.978;5.330;2022-08-01T08:32:52;19.60;99.90
14188;DHT22;7175;51.978;5.330;2022-08-01T08:35:21;19.60;99.90
14188;DHT22;7175;51.978;5.330;2022-08-01T08:38:10;19.80;99.90
14188;DHT22;7175;51.978;5.330;2022-08-01T08:40:42;19.70;99.90
14188;DHT22;7175;51.978;5.330;2022-08-01T08:43:10;19.50;99.90
14188;DHT22;7175;51.978;5.330;2022-08-01T08:45:39;19.60;99.90
14188;DHT22;7175;51.978;5.330;2022-08-01T08:48:27;19.50;99.90
14188;DHT22;7175;51.978;5.330;2022-08-01T08:50:57;19.40;99.90
14188;DHT22;7175;51.978;5.330;2022-08-01T08:53:28;19.50;99.90
14188;DHT22;7175;51.978;5.330;2022-08-01T08:56:02;19.40;99.90
14188;DHT22;7175;51.978;5.330;2022-08-01T08:58:32;19.60;99.90
14188;DHT22;7175;51.978;5.330;2022-08-01T09:01:05;19.30;99.90
14188;DHT22;7175;51.978;5.330;2022-08-01T09:03:34;19.60;99.90
14188;DHT22;7175;51.978;5.330;2022-08-01T09:06:03;19.60;99.90
14188;DHT22;7175;51.978;5.330;2022-08-01T09:08:33;19.60;99.90
14188;DHT22;7175;51.978;5.330;2022-08-01T09:11:03;19.80;99.90
14188;DHT22;7175;51.978;5.330;2022-08-01T09:13:32;19.70;99.90
14188;DHT22;7175;51.978;5.330;2022-08-01T09:16:00;20.00;99.90
14188;DHT22;7175;51.978;5.330;2022-08-01T09:18:31;20.00;99.90
14188;DHT22;7175;51.978;5.330;2022-08-01T09:21:13;19.60;99.90
14188;DHT22;7175;51.978;5.330;2022-08-01T09:23:45;19.80;99.90
14188;DHT22;7175;51.978;5.330;2022-08-01T09:26:28;19.80;99.90
14188;DHT22;7175;51.978;5.330;2022-08-01T09:28:58;19.90;99.90
14188;DHT22;7175;51.978;5.330;2022-08-01T09:31:28;20.00;99.90
14188;DHT22;7175;51.978;5.330;2022-08-01T09:34:04;20.10;99.90
14188;DHT22;7175;51.978;5.330;2022-08-01T09:36:47;20.00;99.90
14188;DHT22;7175;51.978;5.330;2022-08-01T09:39:25;19.90;99.90
14188;DHT22;7175;51.978;5.330;2022-08-01T09:41:58;19.70;99.90
14188;DHT22;7175;51.978;5.330;2022-08-01T09:44:40;19.70;99.90
14188;DHT22;7175;51.978;5.330;2022-08-01T09:47:11;19.60;99.90
14188;DHT22;7175;51.978;5.330;2022-08-01T09:49:44;19.80;99.90
14188;DHT22;7175;51.978;5.330;2022-08-01T09:52:20;19.80;99.90
14188;DHT22;7175;51.978;5.330;2022-08-01T09:54:53;20.00;99.90
14188;DHT22;7175;51.978;5.330;2022-08-01T09:57:24;20.30;99.90
14188;DHT22;7175;51.978;5.330;2022-08-01T09:59:55;20.50;99.90
14188;DHT22;7175;51.978;5.330;2022-08-01T10:02:36;20.30;99.90
14188;DHT22;7175;51.978;5.330;2022-08-01T10:05:06;20.30;99.90
14188;DHT22;7175;51.978;5.330;2022-08-01T10:07:36;20.20;99.90
14188;DHT22;7175;51.978;5.330;2022-08-01T10:10:11;20.30;99.90
14188;DHT22;7175;51.978;5.330;2022-08-01T10:12:42;20.30;99.90
14188;DHT22;7175;51.978;5.330;2022-08-01T10:15:14;20.50;99.90
14188;DHT22;7175;51.978;5.330;2022-08-01T10:17:50;20.30;99.90
14188;DHT22;7175;51.978;5.330;2022-08-01T10:20:26;20.60;99.90
14188;DHT22;7175;51.978;5.330;2022-08-01T10:23:06;20.70;99.90
14188;DHT22;7175;51.978;5.330;2022-08-01T10:25:37;20.90;99.90
14188;DHT22;7175;51.978;5.330;2022-08-01T10:28:17;20.90;99.90
14188;DHT22;7175;51.978;5.330;2022-08-01T10:31:02;21.00;99.90
14188;DHT22;7175;51.978;5.330;2022-08-01T10:33:40;21.10;99.90
14188;DHT22;7175;51.978;5.330;2022-08-01T10:36:20;21.30;99.90
14188;DHT22;7175;51.978;5.330;2022-08-01T10:38:52;21.30;99.90
14188;DHT22;7175;51.978;5.330;2022-08-01T10:41:21;21.20;99.90
14188;DHT22;7175;51.978;5.330;2022-08-01T10:43:52;21.40;99.90
14188;DHT22;7175;51.978;5.330;2022-08-01T10:46:21;21.80;99.90
14188;DHT22;7175;51.978;5.330;2022-08-01T10:48:56;22.20;99.90
14188;DHT22;7175;51.978;5.330;2022-08-01T10:51:31;22.40;99.90
14188;DHT22;7175;51.978;5.330;2022-08-01T10:54:24;22.50;99.90
14188;DHT22;7175;51.978;5.330;2022-08-01T10:57:00;22.40;99.90
14188;DHT22;7175;51.978;5.330;2022-08-01T10:59:36;22.40;99.90
14188;DHT22;7175;51.978;5.330;2022-08-01T11:02:35;22.10;99.90
14188;DHT22;7175;51.978;5.330;2022-08-01T11:05:21;22.10;99.90
14188;DHT22;7175;51.978;5.330;2022-08-01T11:07:52;22.40;99.90
14188;DHT22;7175;51.978;5.330;2022-08-01T11:10:25;22.40;99.90
14188;DHT22;7175;51.978;5.330;2022-08-01T11:13:07;22.10;99.90
14188;DHT22;7175;51.978;5.330;2022-08-01T11:15:42;21.80;99.90
14188;DHT22;7175;51.978;5.330;2022-08-01T11:18:33;21.90;99.90
14188;DHT22;7175;51.978;5.330;2022-08-01T11:21:06;21.80;99.90
14188;DHT22;7175;51.978;5.330;2022-08-01T11:23:54;22.10;99.90
14188;DHT22;7175;51.978;5.330;2022-08-01T11:26:26;21.90;99.90
14188;DHT22;7175;51.978;5.330;2022-08-01T11:29:17;22.00;99.90
14188;DHT22;7175;51.978;5.330;2022-08-01T11:32:28;22.00;99.90
14188;DHT22;7175;51.978;5.330;2022-08-01T11:35:08;22.20;99.90
14188;DHT22;7175;51.978;5.330;2022-08-01T11:37:38;22.40;99.90
14188;DHT22;7175;51.978;5.330;2022-08-01T11:40:18;22.40;99.90
14188;DHT22;7175;51.978;5.330;2022-08-01T11:43:18;22.50;99.90
14188;DHT22;7175;51.978;5.330;2022-08-01T11:45:49;22.70;99.90
14188;DHT22;7175;51.978;5.330;2022-08-01T11:48:22;22.60;99.90
14188;DHT22;7175;51.978;5.330;2022-08-01T11:50:54;22.40;99.90
14188;DHT22;7175;51.978;5.330;2022-08-01T11:53:23;22.30;99.90
14188;DHT22;7175;51.978;5.330;2022-08-01T11:55:54;22.40;99.90
14188;DHT22;7175;51.978;5.330;2022-08-01T11:58:26;22.60;99.90
14188;DHT22;7175;51.978;5.330;2022-08-01T12:00:59;22.60;99.90
14188;DHT22;7175;51.978;5.330;2022-08-01T12:03:31;22.30;99.90
14188;DHT22;7175;51.978;5.330;2022-08-01T12:06:00;22.30;99.90
14188;DHT22;7175;51.978;5.330;2022-08-01T12:08:32;22.50;99.90
14188;DHT22;7175;51.978;5.330;2022-08-01T12:11:04;22.70;99.90
14188;DHT22;7175;51.978;5.330;2022-08-01T12:13:44;23.00;99.90
14188;DHT22;7175;51.978;5.330;2022-08-01T12:16:13;23.20;99.90
14188;DHT22;7175;51.978;5.330;2022-08-01T12:18:42;23.60;99.90
14188;DHT22;7175;51.978;5.330;2022-08-01T12:21:11;24.00;99.90
14188;DHT22;7175;51.978;5.330;2022-08-01T12:23:39;24.70;99.90
14188;DHT22;7175;51.978;5.330;2022-08-01T12:26:08;25.10;99.90
14188;DHT22;7175;51.978;5.330;2022-08-01T12:29:01;24.70;99.90
14188;DHT22;7175;51.978;5.330;2022-08-01T12:31:32;24.40;99.90
14188;DHT22;7175;51.978;5.330;2022-08-01T12:34:24;25.00;99.90
14188;DHT22;7175;51.978;5.330;2022-08-01T12:36:53;25.20;99.90
14188;DHT22;7175;51.978;5.330;2022-08-01T12:39:29;25.00;99.90
14188;DHT22;7175;51.978;5.330;2022-08-01T12:41:58;24.60;99.90
14188;DHT22;7175;51.978;5.330;2022-08-01T12:44:29;25.00;99.90
14188;DHT22;7175;51.978;5.330;2022-08-01T12:46:59;25.10;99.90
14188;DHT22;7175;51.978;5.330;2022-08-01T12:49:29;25.20;99.90
14188;DHT22;7175;51.978;5.330;2022-08-01T12:51:59;25.50;99.90
14188;DHT22;7175;51.978;5.330;2022-08-01T12:54:27;25.60;99.90
14188;DHT22;7175;51.978;5.330;2022-08-01T12:56:56;25.50;99.90
14188;DHT22;7175;51.978;5.330;2022-08-01T12:59:26;26.20;99.90
14188;DHT22;7175;51.978;5.330;2022-08-01T13:02:07;26.30;99.40
14188;DHT22;7175;51.978;5.330;2022-08-01T13:04:49;25.50;98.30
14188;DHT22;7175;51.978;5.330;2022-08-01T13:07:18;25.70;97.00
14188;DHT22;7175;51.978;5.330;2022-08-01T13:09:49;25.50;98.70
14188;DHT22;7175;51.978;5.330;2022-08-01T13:12:18;26.20;97.60
14188;DHT22;7175;51.978;5.330;2022-08-01T13:14:47;26.40;96.90
14188;DHT22;7175;51.978;5.330;2022-08-01T13:17:32;26.80;92.80
14188;DHT22;7175;51.978;5.330;2022-08-01T13:20:05;27.10;94.20
14188;DHT22;7175;51.978;5.330;2022-08-01T13:22:34;27.60;91.30
14188;DHT22;7175;51.978;5.330;2022-08-01T13:25:11;27.20;88.50
14188;DHT22;7175;51.978;5.330;2022-08-01T13:27:42;28.00;87.20
14188;DHT22;7175;51.978;5.330;2022-08-01T13:30:26;26.40;73.70
14188;DHT22;7175;51.978;5.330;2022-08-01T13:32:59;26.10;81.10
14188;DHT22;7175;51.978;5.330;2022-08-01T13:35:28;25.50;76.60
14188;DHT22;7175;51.978;5.330;2022-08-01T13:37:57;26.00;83.10
14188;DHT22;7175;51.978;5.330;2022-08-01T13:40:27;25.90;80.90
14188;DHT22;7175;51.978;5.330;2022-08-01T13:42:55;26.00;80.60
14188;DHT22;7175;51.978;5.330;2022-08-01T13:45:28;25.90;76.60
14188;DHT22;7175;51.978;5.330;2022-08-01T13:48:01;25.60;76.30
14188;DHT22;7175;51.978;5.330;2022-08-01T13:50:47;25.90;77.20
14188;DHT22;7175;51.978;5.330;2022-08-01T13:53:35;26.00;72.80
14188;DHT22;7175;51.978;5.330;2022-08-01T13:56:05;25.10;75.00
14188;DHT22;7175;51.978;5.330;2022-08-01T13:58:34;25.80;75.60
14188;DHT22;7175;51.978;5.330;2022-08-01T14:01:02;26.40;75.30
14188;DHT22;7175;51.978;5.330;2022-08-01T14:03:34;26.50;70.40
14188;DHT22;7175;51.978;5.330;2022-08-01T14:06:02;26.50;74.30
14188;DHT22;7175;51.978;5.330;2022-08-01T14:08:32;27.70;79.40
14188;DHT22;7175;51.978;5.330;2022-08-01T14:11:01;27.50;69.90
14188;DHT22;7175;51.978;5.330;2022-08-01T14:13:33;27.50;75.90
14188;DHT22;7175;51.978;5.330;2022-08-01T14:16:12;27.10;69.50
14188;DHT22;7175;51.978;5.330;2022-08-01T14:18:43;27.00;73.00
14188;DHT22;7175;51.978;5.330;2022-08-01T14:21:14;27.00;73.30
14188;DHT22;7175;51.978;5.330;2022-08-01T14:23:42;27.00;69.20
14188;DHT22;7175;51.978;5.330;2022-08-01T14:26:11;26.40;71.60
14188;DHT22;7175;51.978;5.330;2022-08-01T14:28:39;25.60;69.20
14188;DHT22;7175;51.978;5.330;2022-08-01T14:31:08;26.20;72.20
14188;DHT22;7175;51.978;5.330;2022-08-01T14:33:40;26.20;72.90
14188;DHT22;7175;51.978;5.330;2022-08-01T14:36:10;26.20;74.50
14188;DHT22;7175;51.978;5.330;2022-08-01T14:38:59;26.40;69.30
14188;DHT22;7175;51.978;5.330;2022-08-01T14:41:29;25.50;68.40
14188;DHT22;7175;51.978;5.330;2022-08-01T14:43:58;25.60;67.20
14188;DHT22;7175;51.978;5.330;2022-08-01T14:46:28;25.90;70.00
14188;DHT22;7175;51.978;5.330;2022-08-01T14:48:59;25.40;65.50
14188;DHT22;7175;51.978;5.330;2022-08-01T14:51:29;25.20;65.10
14188;DHT22;7175;51.978;5.330;2022-08-01T14:54:00;25.20;64.30
14188;DHT22;7175;51.978;5.330;2022-08-01T14:56:29;25.30;67.70
14188;DHT22;7175;51.978;5.330;2022-08-01T14:58:58;25.40;68.10
14188;DHT22;7175;51.978;5.330;2022-08-01T15:01:26;25.40;64.50
14188;DHT22;7175;51.978;5.330;2022-08-01T15:03:55;25.50;63.20
14188;DHT22;7175;51.978;5.330;2022-08-01T15:06:23;25.30;64.50
14188;DHT22;7175;51.978;5.330;2022-08-01T15:08:54;24.60;63.40
14188;DHT22;7175;51.978;5.330;2022-08-01T15:11:22;24.10;65.50
14188;DHT22;7175;51.978;5.330;2022-08-01T15:14:00;24.20;68.60
14188;DHT22;7175;51.978;5.330;2022-08-01T15:16:45;24.40;67.10
14188;DHT22;7175;51.978;5.330;2022-08-01T15:19:15;24.90;72.50
14188;DHT22;7175;51.978;5.330;2022-08-01T15:21:43;25.10;69.40
14188;DHT22;7175;51.978;5.330;2022-08-01T15:24:13;24.60;62.00
14188;DHT22;7175;51.978;5.330;2022-08-01T15:26:43;24.70;66.00
14188;DHT22;7175;51.978;5.330;2022-08-01T15:29:12;24.80;69.10
14188;DHT22;7175;51.978;5.330;2022-08-01T15:31:43;24.40;67.20
14188;DHT22;7175;51.978;5.330;2022-08-01T15:34:12;24.30;68.30
14188;DHT22;7175;51.978;5.330;2022-08-01T15:36:41;24.20;71.30
14188;DHT22;7175;51.978;5.330;2022-08-01T15:39:10;24.40;75.80
14188;DHT22;7175;51.978;5.330;2022-08-01T15:41:40;24.50;71.40
14188;DHT22;7175;51.978;5.330;2022-08-01T15:44:08;23.80;65.90
14188;DHT22;7175;51.978;5.330;2022-08-01T15:46:36;23.60;68.30
14188;DHT22;7175;51.978;5.330;2022-08-01T15:49:05;23.40;67.30
14188;DHT22;7175;51.978;5.330;2022-08-01T15:51:34;23.60;70.90
14188;DHT22;7175;51.978;5.330;2022-08-01T15:54:02;23.70;71.60
14188;DHT22;7175;51.978;5.330;2022-08-01T15:56:40;23.70;71.80
14188;DHT22;7175;51.978;5.330;2022-08-01T15:59:08;23.70;69.80
14188;DHT22;7175;51.978;5.330;2022-08-01T16:01:37;23.70;71.10
14188;DHT22;7175;51.978;5.330;2022-08-01T16:04:06;23.30;69.70
14188;DHT22;7175;51.978;5.330;2022-08-01T16:06:35;23.30;69.70
14188;DHT22;7175;51.978;5.330;2022-08-01T16:09:05;23.30;70.00
14188;DHT22;7175;51.978;5.330;2022-08-01T16:11:45;23.30;71.20
14188;DHT22;7175;51.978;5.330;2022-08-01T16:14:17;23.10;72.30
14188;DHT22;7175;51.978;5.330;2022-08-01T16:16:47;23.00;71.90
14188;DHT22;7175;51.978;5.330;2022-08-01T16:19:17;22.80;72.80
14188;DHT22;7175;51.978;5.330;2022-08-01T16:21:45;22.90;71.50
14188;DHT22;7175;51.978;5.330;2022-08-01T16:24:14;22.70;69.10